Time;durP1;ratioP1;P1;durP2;ratioP2;P2;SDS_P1;SDS_P2;PMS_P1;PMS_P2;Temp;Humidity;BMP_temperature;BMP_pressure;BME280_temperature;BME280_humidity;BME280_pressure;Samples;Min_cycle;Max_cycle;Signal;HPM_P1;HPM_P2
2021/03/25 00:00:33;;;;;;;140.35;72.82;;;;;;;5.25;67.91;100853.67;2246981;78;30156;-73
2021/03/25 00:03:37;;;;;;;127.85;65.95;;;;;;;5.26;67.87;100862.51;2257522;78;32129;-71
2021/03/25 00:06:45;;;;;;;127.42;63.87;;;;;;;5.27;67.99;100852.31;2241569;78;28916;-71
2021/03/25 00:09:47;;;;;;;129.03;63.08;;;;;;;5.26;67.98;100849.23;2204879;79;27618;-73
2021/03/25 00:12:49;;;;;;;126.33;60.40;;;;;;;5.26;67.99;100843.91;2225125;78;31151;-73
2021/03/25 00:15:51;;;;;;;116.35;58.42;;;;;;;5.30;68.02;100839.83;2209801;79;31154;-70
2021/03/25 00:18:53;;;;;;;118.67;60.98;;;;;;;5.37;68.06;100839.30;2188557;80;34034;-69
2021/03/25 00:21:56;;;;;;;123.87;61.20;;;;;;;5.45;68.00;100841.33;2214411;80;30176;-67
2021/03/25 00:24:58;;;;;;;123.92;63.28;;;;;;;5.54;68.04;100842.07;2209489;80;28156;-69
2021/03/25 00:28:00;;;;;;;116.88;61.85;;;;;;;5.59;67.84;100831.77;2169883;80;28825;-65
2021/03/25 00:31:02;;;;;;;112.03;59.60;;;;;;;5.63;67.75;100835.23;2173165;80;31202;-73
2021/03/25 00:34:05;;;;;;;119.13;61.42;;;;;;;5.67;67.82;100834.27;2182226;81;33573;-72
2021/03/25 00:37:07;;;;;;;120.37;61.92;;;;;;;5.72;67.74;100828.84;2185093;81;28868;-65
2021/03/25 00:40:11;;;;;;;124.20;63.20;;;;;;;5.73;67.62;100830.59;2184219;81;27723;-73
2021/03/25 00:43:15;;;;;;;130.10;66.33;;;;;;;5.75;67.64;100834.10;2184780;81;28822;-69
2021/03/25 00:46:18;;;;;;;125.90;65.67;;;;;;;5.75;67.55;100834.10;2190427;81;31603;-64
2021/03/25 00:49:22;;;;;;;120.47;62.50;;;;;;;5.76;67.65;100834.05;2190227;81;33985;-70
2021/03/25 00:52:24;;;;;;;117.53;61.63;;;;;;;5.77;67.62;100828.30;2190802;81;29736;-72
2021/03/25 00:55:26;;;;;;;122.20;64.58;;;;;;;5.77;67.68;100826.97;2182014;81;27634;-68
2021/03/25 00:58:28;;;;;;;125.42;62.20;;;;;;;5.77;67.61;100826.97;2187668;81;28820;-73
2021/03/25 01:01:31;;;;;;;121.42;62.58;;;;;;;5.75;67.58;100819.48;2184280;81;31150;-66
2021/03/25 01:04:33;;;;;;;122.37;59.18;;;;;;;5.74;67.65;100822.58;2176082;81;34083;-66
2021/03/25 01:07:35;;;;;;;118.95;60.67;;;;;;;5.75;67.59;100824.33;2182622;81;28875;-70
2021/03/25 01:10:50;;;;;;;115.97;60.70;;;;;;;5.73;67.56;100812.84;2188138;81;27712;-66
2021/03/25 01:13:57;;;;;;;118.40;60.35;;;;;;;5.73;67.56;100808.86;2187501;81;28936;-71
2021/03/25 01:17:02;;;;;;;117.75;60.78;;;;;;;5.78;67.64;100807.45;2187005;81;31232;-67
2021/03/25 01:20:14;;;;;;;122.98;62.78;;;;;;;5.84;67.67;100816.61;2181246;81;34395;-66
2021/03/25 01:23:17;;;;;;;123.40;62.58;;;;;;;5.88;67.71;100812.98;2154267;81;28114;-68
2021/03/25 01:26:20;;;;;;;122.78;64.00;;;;;;;5.92;67.73;100805.80;2158353;81;27733;-65
2021/03/25 01:29:23;;;;;;;124.40;64.60;;;;;;;5.95;67.67;100805.74;2190995;80;28823;-67
2021/03/25 01:32:25;;;;;;;130.30;64.90;;;;;;;5.96;67.54;100799.52;2158992;81;31993;-63
2021/03/25 01:35:29;;;;;;;131.43;64.05;;;;;;;5.97;67.57;100802.59;2158352;81;34140;-70
2021/03/25 01:38:31;;;;;;;115.22;60.35;;;;;;;5.97;67.37;100804.36;2158595;81;29033;-71
2021/03/25 01:41:36;;;;;;;115.20;59.08;;;;;;;5.96;67.45;100805.30;2155242;81;27771;-68
2021/03/25 01:44:40;;;;;;;122.00;61.48;;;;;;;5.96;67.42;100806.16;2164098;81;28798;-66
2021/03/25 01:47:42;;;;;;;128.95;62.83;;;;;;;5.93;67.29;100798.25;2151687;81;32114;-65
2021/03/25 01:50:44;;;;;;;125.27;61.90;;;;;;;5.89;67.30;100794.80;2163775;81;33185;-71
2021/03/25 01:54:06;;;;;;;129.20;64.25;;;;;;;5.87;67.29;100797.94;2150462;81;28875;-69
2021/03/25 01:57:45;;;;;;;113.42;58.65;;;;;;;5.86;67.38;100797.98;2202924;80;27735;-73
2021/03/25 02:01:15;;;;;;;118.70;56.85;;;;;;;5.85;67.44;100795.77;2168794;80;28811;-69
2021/03/25 02:04:38;;;;;;;117.97;58.40;;;;;;;5.85;67.49;100790.91;2150915;81;32075;-67
2021/03/25 02:08:07;;;;;;;119.05;60.92;;;;;;;5.89;67.48;100789.48;2163895;81;33139;-72
2021/03/25 02:11:20;;;;;;;115.20;60.65;;;;;;;5.90;67.46;100792.55;2153314;81;28885;-73
2021/03/25 02:14:45;;;;;;;120.97;61.13;;;;;;;5.92;67.43;100791.17;2160680;81;27708;-72
2021/03/25 02:18:02;;;;;;;117.13;61.90;;;;;;;5.94;67.48;100794.69;2162053;81;28862;-71
2021/03/25 02:21:27;;;;;;;111.15;58.48;;;;;;;5.98;67.54;100791.49;2218217;78;31271;-72
2021/03/25 02:24:48;;;;;;;121.95;61.00;;;;;;;6.00;67.51;100785.28;2216316;80;33111;-70
2021/03/25 02:28:02;;;;;;;115.37;60.20;;;;;;;5.96;67.40;100782.23;2166355;81;29784;-68
2021/03/25 02:31:18;;;;;;;120.15;60.43;;;;;;;5.90;67.35;100783.69;2177909;81;27710;-72
2021/03/25 02:34:25;;;;;;;115.80;60.63;;;;;;;5.89;67.31;100790.80;2175230;81;29656;-72
2021/03/25 02:37:33;;;;;;;110.57;59.05;;;;;;;5.87;67.37;100786.44;2176320;81;32102;-72
2021/03/25 02:40:40;;;;;;;111.62;60.03;;;;;;;5.86;67.46;100778.91;2177192;81;33284;-71
2021/03/25 02:43:50;;;;;;;115.15;59.58;;;;;;;5.86;67.28;100785.55;2172036;80;28925;-71
2021/03/25 02:46:58;;;;;;;110.37;61.68;;;;;;;5.86;67.33;100778.05;2172687;81;27641;-72
2021/03/25 02:50:20;;;;;;;111.70;59.95;;;;;;;5.84;67.22;100774.06;2181081;81;29798;-71
2021/03/25 02:53:35;;;;;;;111.47;59.73;;;;;;;5.81;67.26;100762.16;2214324;79;32620;-65
2021/03/25 02:56:53;;;;;;;114.88;60.48;;;;;;;5.78;67.28;100768.44;2184555;81;34000;-72
2021/03/25 03:00:03;;;;;;;105.80;55.92;;;;;;;5.77;67.33;100772.47;2167749;81;28872;-72
2021/03/25 03:03:10;;;;;;;113.08;57.88;;;;;;;5.75;67.37;100768.50;2218106;79;27698;-72
2021/03/25 03:06:20;;;;;;;116.53;58.78;;;;;;;5.80;67.50;100771.52;2181473;81;28821;-72
2021/03/25 03:09:26;;;;;;;113.32;58.90;;;;;;;5.82;67.29;100767.05;2211482;80;32098;-73
2021/03/25 03:12:36;;;;;;;109.92;60.88;;;;;;;5.86;67.39;100774.05;2217166;80;34025;-72
2021/03/25 03:16:04;;;;;;;116.03;59.80;;;;;;;5.89;67.44;100772.63;2182665;81;28855;-72
2021/03/25 03:19:33;;;;;;;110.25;57.73;;;;;;;5.91;67.38;100763.73;2176353;81;27651;-70
2021/03/25 03:22:36;;;;;;;112.47;60.83;;;;;;;5.95;67.36;100760.53;2177983;80;28890;-65
2021/03/25 03:25:39;;;;;;;111.05;58.58;;;;;;;5.96;67.26;100755.64;2184547;81;31147;-69
2021/03/25 03:28:51;;;;;;;108.30;56.58;;;;;;;5.92;67.13;100752.19;2174340;81;33110;-68
2021/03/25 03:32:24;;;;;;;105.17;57.53;;;;;;;5.89;67.21;100746.03;2165982;81;28858;-64
2021/03/25 03:35:40;;;;;;;110.12;58.02;;;;;;;5.88;67.26;100757.58;2185078;81;27682;-70
2021/03/25 03:38:51;;;;;;;108.12;58.17;;;;;;;5.85;67.26;100751.03;2184321;81;28747;-71
2021/03/25 03:42:07;;;;;;;115.47;59.73;;;;;;;5.79;67.12;100749.39;2225936;79;32452;-71
2021/03/25 03:45:13;;;;;;;114.97;59.93;;;;;;;5.75;67.18;100758.34;2168428;81;33129;-71
2021/03/25 03:48:36;;;;;;;116.10;59.30;;;;;;;5.70;67.22;100750.47;2190464;81;29809;-71
2021/03/25 03:51:48;;;;;;;114.62;57.05;;;;;;;5.65;67.36;100762.98;2193694;81;27674;-70
2021/03/25 03:54:52;;;;;;;107.10;56.13;;;;;;;5.60;67.53;100753.78;2178200;81;28846;-67
2021/03/25 03:58:27;;;;;;;101.20;55.30;;;;;;;5.62;67.65;100760.38;2189579;81;31212;-67
2021/03/25 04:01:47;;;;;;;111.88;58.90;;;;;;;5.62;67.66;100756.39;2183821;81;33632;-70
2021/03/25 04:04:54;;;;;;;107.03;58.73;;;;;;;5.64;67.64;100751.92;2176877;81;29711;-68
2021/03/25 04:08:29;;;;;;;109.80;58.78;;;;;;;5.63;67.65;100750.17;2192081;81;27714;-73
2021/03/25 04:11:56;;;;;;;103.20;56.00;;;;;;;5.63;67.63;100752.83;2175338;81;30190;-73
2021/03/25 04:15:12;;;;;;;107.35;57.40;;;;;;;5.63;67.66;100752.83;1981931;88;31401;-74
2021/03/25 04:18:28;;;;;;;98.25;55.78;;;;;;;5.66;67.67;100753.20;1989613;88;34026;-76
2021/03/25 04:21:37;;;;;;;106.87;57.93;;;;;;;5.66;67.50;100754.09;1979740;88;28878;-77
2021/03/25 04:25:09;;;;;;;120.67;62.50;;;;;;;5.65;67.52;100758.98;1954557;90;27851;-72
2021/03/25 04:28:19;;;;;;;119.30;66.95;;;;;;;5.60;67.46;100760.42;1979434;89;28791;-77
2021/03/25 04:31:21;;;;;;;114.65;59.85;;;;;;;5.53;67.54;100761.92;1943780;90;31202;-75
2021/03/25 04:34:24;;;;;;;120.00;61.18;;;;;;;5.51;67.71;100761.08;1983513;88;33599;-74
2021/03/25 04:37:29;;;;;;;121.13;66.97;;;;;;;5.49;67.65;100759.76;1952624;90;29250;-66
2021/03/25 04:40:35;;;;;;;127.27;68.60;;;;;;;5.48;67.73;100764.65;2021424;86;28304;-70
2021/03/25 04:43:37;;;;;;;120.50;62.55;;;;;;;5.45;67.78;100758.09;2029031;86;28848;-73
2021/03/25 04:46:53;;;;;;;119.60;60.43;;;;;;;5.44;67.88;100764.31;2021445;86;31161;-77
2021/03/25 04:50:04;;;;;;;112.70;56.80;;;;;;;5.43;67.76;100767.88;1956763;89;33133;-76
2021/03/25 04:53:26;;;;;;;120.85;64.90;;;;;;;5.43;67.84;100770.06;1957083;89;29177;-68
2021/03/25 04:56:28;;;;;;;125.80;66.70;;;;;;;5.46;67.90;100763.37;1956873;89;27624;-76
2021/03/25 04:59:31;;;;;;;119.15;66.20;;;;;;;5.46;67.94;100766.49;1956948;89;28854;-66
2021/03/25 05:02:34;;;;;;;108.67;59.40;;;;;;;5.48;68.11;100760.66;1957203;89;31734;-70
2021/03/25 05:05:38;;;;;;;123.75;65.45;;;;;;;5.54;68.09;100765.00;1955848;89;33477;-66
2021/03/25 05:08:40;;;;;;;118.53;65.72;;;;;;;5.56;68.03;100760.50;1958951;89;29624;-71
2021/03/25 05:11:42;;;;;;;118.08;62.17;;;;;;;5.60;68.09;100762.19;1936833;89;27786;-76
2021/03/25 05:14:45;;;;;;;116.75;61.55;;;;;;;5.64;68.10;100769.20;1948887;89;29080;-74
2021/03/25 05:18:11;;;;;;;111.15;60.52;;;;;;;5.66;68.08;100762.51;1939098;89;32185;-74
2021/03/25 05:21:19;;;;;;;109.97;60.63;;;;;;;5.70;68.11;100772.17;1947917;89;33147;-77
2021/03/25 05:24:39;;;;;;;110.70;58.50;;;;;;;5.70;68.00;100766.42;1946374;91;30046;-75
2021/03/25 05:28:01;;;;;;;106.37;57.83;;;;;;;5.71;67.91;100765.95;2004377;87;27912;-77
2021/03/25 05:31:07;;;;;;;115.50;61.13;;;;;;;5.72;67.89;100766.37;2020702;88;28840;-71
2021/03/25 05:34:09;;;;;;;108.60;58.73;;;;;;;5.72;67.95;100767.70;2020822;88;32082;-76
2021/03/25 05:37:11;;;;;;;106.83;56.42;;;;;;;5.75;68.00;100771.63;2017306;87;33112;-68
2021/03/25 05:40:27;;;;;;;102.45;55.75;;;;;;;5.76;67.90;100767.59;2017097;88;29184;-71
2021/03/25 05:43:54;;;;;;;;;;;;;;;5.82;67.93;100774.55;2019488;88;27756;-75
2021/03/25 05:47:24;;;;;;;110.35;58.30;;;;;;;5.91;67.97;100766.39;2017100;88;28901;-68
2021/03/25 05:50:43;;;;;;;114.95;58.70;;;;;;;6.01;67.86;100767.09;2016603;87;31169;-76
2021/03/25 05:53:56;;;;;;;114.80;57.73;;;;;;;6.14;67.94;100774.30;2029878;87;33122;-72
2021/03/25 05:57:47;;;;;;;110.88;58.00;;;;;;;6.28;67.84;100775.78;2029902;87;29236;-76
2021/03/25 06:01:12;;;;;;;119.42;60.95;;;;;;;6.37;67.69;100778.20;2019457;87;29083;-76
2021/03/25 06:04:20;;;;;;;113.90;58.48;;;;;;;6.52;67.67;100784.48;2023073;87;29769;-74
2021/03/25 06:07:59;;;;;;;113.77;61.83;;;;;;;6.64;67.45;100782.41;2034976;87;31166;-73
2021/03/25 06:11:37;;;;;;;110.20;60.03;;;;;;;6.77;67.36;100789.63;1969441;89;33128;-66
2021/03/25 06:15:09;;;;;;;109.32;57.88;;;;;;;6.90;67.08;100794.19;1938635;90;29239;-72
2021/03/25 06:18:45;;;;;;;119.02;61.80;;;;;;;7.03;66.98;100796.08;1939572;89;27758;-68
2021/03/25 06:22:05;;;;;;;106.47;58.83;;;;;;;7.17;67.00;100790.35;1939716;91;28916;-75
2021/03/25 06:25:50;;;;;;;107.95;59.58;;;;;;;7.40;66.62;100780.38;1939550;91;31177;-73
2021/03/25 06:29:07;;;;;;;107.77;60.50;;;;;;;7.65;66.47;100787.67;1939667;91;33985;-73
2021/03/25 06:32:47;;;;;;;104.57;59.37;;;;;;;8.00;65.91;100783.92;2296126;77;29484;-69
2021/03/25 06:35:56;;;;;;;100.72;57.23;;;;;;;8.16;66.04;100787.44;2262624;78;27793;-70
2021/03/25 06:39:00;;;;;;;112.97;55.28;;;;;;;8.47;65.43;100787.77;2262321;78;28819;-63
2021/03/25 06:42:39;;;;;;;108.05;54.48;;;;;;;8.70;65.23;100784.84;2262653;78;31144;-69
2021/03/25 06:46:02;;;;;;;109.52;54.60;;;;;;;8.95;64.75;100784.87;2262322;78;33173;-69
2021/03/25 06:49:24;;;;;;;118.13;58.40;;;;;;;9.21;64.50;100793.75;2262567;78;28567;-63
2021/03/25 06:52:31;;;;;;;108.57;56.05;;;;;;;9.53;64.33;100799.71;2262200;78;27600;-69
2021/03/25 06:55:33;;;;;;;97.33;54.77;;;;;;;9.87;63.49;100793.97;2226109;78;29798;-65
2021/03/25 06:58:46;;;;;;;103.17;55.20;;;;;;;10.15;62.94;100798.70;2222389;80;31144;-67
2021/03/25 07:01:54;;;;;;;94.90;55.73;;;;;;;10.44;62.72;100798.02;2222310;80;33246;-67
2021/03/25 07:04:59;;;;;;;98.55;55.10;;;;;;;10.73;62.38;100798.16;2222096;80;29709;-68
2021/03/25 07:08:09;;;;;;;95.55;53.28;;;;;;;11.05;61.92;100800.37;2222177;80;27616;-68
2021/03/25 07:11:18;;;;;;;94.37;55.45;;;;;;;11.34;61.57;100806.25;2213783;78;29700;-69
2021/03/25 07:14:29;;;;;;;95.07;55.35;;;;;;;11.64;60.86;100800.45;2221770;78;31345;-67
2021/03/25 07:17:41;;;;;;;102.32;54.80;;;;;;;11.90;60.64;100797.90;2207373;80;33102;-67
2021/03/25 07:20:44;;;;;;;88.87;52.73;;;;;;;12.21;59.48;100799.14;2208222;80;28844;-66
2021/03/25 07:23:46;;;;;;;88.33;51.75;;;;;;;12.50;59.86;100802.66;2208348;79;27686;-67
2021/03/25 07:27:01;;;;;;;90.55;54.15;;;;;;;12.73;59.28;100805.09;2208229;80;28822;-68
2021/03/25 07:30:17;;;;;;;86.75;54.85;;;;;;;12.99;59.01;100801.52;2208187;79;31201;-67
2021/03/25 07:33:23;;;;;;;82.00;52.90;;;;;;;13.23;58.43;100791.78;2208329;80;33118;-67
2021/03/25 07:36:25;;;;;;;86.08;53.68;;;;;;;13.38;56.93;100794.15;2207190;80;28849;-67
2021/03/25 07:39:36;;;;;;;86.02;53.78;;;;;;;13.48;56.92;100802.14;2208295;80;28124;-68
2021/03/25 07:42:39;;;;;;;96.97;57.58;;;;;;;13.71;56.65;100801.84;2238673;78;28896;-69
2021/03/25 07:45:41;;;;;;;89.70;55.23;;;;;;;13.93;56.53;100793.44;2221273;80;31218;-68
2021/03/25 07:48:58;;;;;;;87.90;54.80;;;;;;;14.04;55.83;100792.38;2221518;80;33047;-69
2021/03/25 07:52:11;;;;;;;88.80;56.05;;;;;;;14.23;55.48;100794.03;2221434;80;28862;-67
2021/03/25 07:55:23;;;;;;;93.85;58.33;;;;;;;14.43;55.22;100785.64;2233419;79;27692;-69
2021/03/25 07:58:46;;;;;;;90.60;57.05;;;;;;;14.64;54.94;100793.94;2245456;79;28866;-69
2021/03/25 08:01:48;;;;;;;95.03;58.40;;;;;;;14.86;54.33;100790.37;2245299;79;31985;-69
2021/03/25 08:04:50;;;;;;;95.67;57.45;;;;;;;14.95;53.82;100785.39;2253621;78;33980;-69
2021/03/25 08:07:56;;;;;;;102.72;58.95;;;;;;;15.00;53.63;100790.02;2261591;78;28734;-69
2021/03/25 08:11:20;;;;;;;91.40;55.33;;;;;;;15.10;53.40;100784.93;2239863;78;27618;-69
2021/03/25 08:14:34;;;;;;;88.20;56.05;;;;;;;15.28;53.41;100789.70;2221194;80;28796;-70
2021/03/25 08:17:46;;;;;;;79.95;54.23;;;;;;;15.52;53.06;100783.72;2221548;80;31143;-70
2021/03/25 08:21:18;;;;;;;91.95;56.15;;;;;;;15.73;52.77;100781.48;2154930;81;33943;-70
2021/03/25 08:24:48;;;;;;;90.20;55.92;;;;;;;15.92;52.25;100778.52;2175048;81;28847;-70
2021/03/25 08:28:24;;;;;;;82.55;55.52;;;;;;;16.17;51.71;100776.44;2192689;81;27828;-70
2021/03/25 08:31:49;;;;;;;82.08;55.40;;;;;;;16.43;51.77;100776.54;2192547;81;29801;-70
2021/03/25 08:35:36;;;;;;;84.50;55.30;;;;;;;16.48;50.71;100775.76;2185621;81;31138;-70
2021/03/25 08:39:04;;;;;;;82.47;55.67;;;;;;;16.52;50.95;100775.94;2157614;81;33052;-69
2021/03/25 08:42:29;;;;;;;81.55;54.58;;;;;;;16.45;49.94;100774.60;2172716;81;28828;-70
2021/03/25 08:46:01;;;;;;;81.32;53.95;;;;;;;16.16;50.28;100773.35;2173839;81;27640;-69
2021/03/25 08:49:18;;;;;;;79.70;52.10;;;;;;;16.16;50.28;100773.35;2173525;81;28811;-70
2021/03/25 08:52:21;;;;;;;77.30;52.10;;;;;;;16.01;49.36;100766.25;2173645;81;31321;-67
2021/03/25 08:55:39;;;;;;;75.90;50.85;;;;;;;15.73;49.60;100765.27;2179272;81;33099;-67
2021/03/25 08:58:42;;;;;;;77.58;52.48;;;;;;;15.65;50.07;100763.95;2241331;78;28850;-68
2021/03/25 09:01:50;;;;;;;81.78;51.48;;;;;;;15.64;49.80;100760.86;2258702;78;27714;-67
2021/03/25 09:05:27;;;;;;;77.17;51.70;;;;;;;15.54;49.50;100757.48;2221458;80;28857;-67
2021/03/25 09:08:30;;;;;;;82.33;51.48;;;;;;;15.48;49.14;100756.91;2221345;80;31213;-68
2021/03/25 09:11:33;;;;;;;78.07;53.13;;;;;;;15.31;48.79;100755.27;2221353;80;33196;-68
2021/03/25 09:14:36;;;;;;;79.25;51.05;;;;;;;15.26;49.49;100756.03;2229576;78;28941;-67
2021/03/25 09:17:43;;;;;;;73.00;50.05;;;;;;;15.37;49.67;100755.86;2261688;78;27707;-60
2021/03/25 09:20:48;;;;;;;71.62;47.05;;;;;;;15.43;49.63;100764.45;2259312;78;30107;-60
2021/03/25 09:24:02;;;;;;;71.53;48.60;;;;;;;15.55;49.51;100756.53;2230993;78;31172;-60
2021/03/25 09:27:07;;;;;;;70.97;49.77;;;;;;;15.67;49.03;100757.09;2220412;80;33151;-60
2021/03/25 09:30:15;;;;;;;74.47;51.35;;;;;;;15.73;49.03;100758.06;2221462;80;28868;-61
2021/03/25 09:33:52;;;;;;;75.50;48.42;;;;;;;15.78;48.84;100754.59;2192742;77;27606;-62
2021/03/25 09:37:22;;;;;;;73.75;49.70;;;;;;;15.80;48.26;100760.73;2241291;79;28824;-62
2021/03/25 09:40:45;;;;;;;73.67;48.52;;;;;;;15.72;48.58;100755.47;2245052;79;32565;-62
2021/03/25 09:43:48;;;;;;;76.67;51.58;;;;;;;15.73;48.61;100746.37;2244913;79;33969;-62
2021/03/25 09:46:55;;;;;;;78.30;50.23;;;;;;;15.75;48.73;100748.49;2244932;79;29343;-62
2021/03/25 09:50:15;;;;;;;79.97;50.10;;;;;;;15.73;48.60;100750.42;2242057;78;27639;-61
2021/03/25 09:53:18;;;;;;;76.85;52.05;;;;;;;15.73;48.55;100747.25;2260931;78;28858;-62
2021/03/25 09:56:32;;;;;;;73.45;49.65;;;;;;;15.78;47.84;100755.05;2216503;80;32200;-62
2021/03/25 10:00:20;;;;;;;71.55;50.35;;;;;;;15.77;48.49;100753.31;2178948;80;33063;-62
2021/03/25 10:03:58;;;;;;;74.62;51.10;;;;;;;15.63;47.59;100746.97;2140030;81;28858;-61
2021/03/25 10:07:15;;;;;;;72.85;49.18;;;;;;;15.45;47.81;100753.53;2095819;84;28234;-61
2021/03/25 10:10:51;;;;;;;70.90;49.18;;;;;;;15.41;47.43;100754.22;2148866;82;28842;-61
2021/03/25 10:14:26;;;;;;;79.35;50.70;;;;;;;15.29;47.21;100748.25;2342991;76;32672;-60
2021/03/25 10:17:46;;;;;;;76.65;50.48;;;;;;;15.17;47.60;100756.12;2303836;77;27644;-60
2021/03/25 10:21:09;;;;;;;79.58;53.40;;;;;;;15.14;47.53;100753.60;2303631;77;28800;-61
2021/03/25 10:24:25;;;;;;;74.97;51.00;;;;;;;15.13;47.87;100747.85;2303623;77;31077;-62
2021/03/25 10:27:37;;;;;;;75.40;49.55;;;;;;;15.15;47.95;100751.79;2303566;77;34099;-61
2021/03/25 10:30:40;;;;;;;72.50;49.35;;;;;;;15.16;47.64;100749.48;2295538;77;28527;-61
2021/03/25 10:33:43;;;;;;;79.05;51.13;;;;;;;15.13;48.03;100738.87;2235850;75;27817;-61
2021/03/25 10:37:06;;;;;;;73.95;49.55;;;;;;;15.08;47.64;100743.20;2268452;77;28802;-61
2021/03/25 10:40:28;;;;;;;75.75;51.08;;;;;;;15.07;47.67;100740.12;2261801;78;32040;-61
2021/03/25 10:43:34;;;;;;;78.85;50.67;;;;;;;15.01;47.92;100740.02;2257270;77;34190;-62
2021/03/25 10:46:38;;;;;;;74.70;49.55;;;;;;;15.02;48.23;100738.17;2303558;77;28847;-61
2021/03/25 10:49:53;;;;;;;86.70;55.83;;;;;;;15.08;48.36;100735.11;2303782;77;27581;-61
2021/03/25 10:53:00;;;;;;;76.47;50.25;;;;;;;15.09;48.10;100730.56;2303439;77;28799;-61
2021/03/25 10:56:08;;;;;;;80.12;51.23;;;;;;;15.06;47.58;100724.04;2303625;77;32032;-61
2021/03/25 10:59:18;;;;;;;95.60;56.83;;;;;;;15.04;47.78;100729.52;2302604;77;32782;-61
2021/03/25 11:02:25;;;;;;;80.50;53.28;;;;;;;15.04;47.78;100723.65;2299222;75;28839;-61
2021/03/25 11:05:31;;;;;;;76.35;47.80;;;;;;;15.04;47.60;100726.34;2303729;77;27708;-62
2021/03/25 11:08:38;;;;;;;75.52;50.58;;;;;;;15.06;47.76;100722.69;2302835;77;28764;-61
2021/03/25 11:11:40;;;;;;;70.60;46.95;;;;;;;15.11;47.84;100724.13;2303435;75;31546;-62
2021/03/25 11:14:48;;;;;;;77.78;49.42;;;;;;;15.10;47.80;100723.75;2303452;77;33131;-61
2021/03/25 11:17:59;;;;;;;81.47;52.53;;;;;;;15.11;47.86;100719.20;2274202;77;28863;-63
2021/03/25 11:21:14;;;;;;;77.62;50.60;;;;;;;15.09;47.39;100713.91;2302427;77;27670;-61
2021/03/25 11:24:29;;;;;;;80.40;50.10;;;;;;;15.09;47.76;100707.17;2276060;77;28789;-61
2021/03/25 11:27:32;;;;;;;80.50;49.58;;;;;;;15.03;47.19;100708.89;2261086;78;31116;-61
2021/03/25 11:30:39;;;;;;;64.58;44.75;;;;;;;15.06;47.88;100712.75;2260821;78;33170;-61
2021/03/25 11:33:41;;;;;;;69.82;47.03;;;;;;;15.10;47.10;100698.11;2293104;77;28888;-60
2021/03/25 11:36:46;;;;;;;75.12;47.43;;;;;;;15.07;47.05;100695.59;2256272;77;27739;-60
2021/03/25 11:40:13;;;;;;;;;;;;;;;15.07;46.98;100704.16;2235764;79;28883;-60
2021/03/25 11:43:23;;;;;;;65.97;45.63;;;;;;;15.07;47.28;100699.64;2233108;79;31296;-61
2021/03/25 11:46:33;;;;;;;74.58;49.90;;;;;;;15.11;47.62;100694.45;2235181;77;33057;-60
2021/03/25 11:49:42;;;;;;;72.95;48.10;;;;;;;15.14;46.99;100690.68;2301919;77;28855;-61
2021/03/25 11:52:48;;;;;;;71.22;46.95;;;;;;;15.16;46.72;100693.66;2302762;77;27614;-61
2021/03/25 11:55:52;;;;;;;71.82;48.65;;;;;;;15.13;46.54;100685.78;2302785;77;29793;-60
2021/03/25 11:59:08;;;;;;;76.50;52.38;;;;;;;15.14;47.19;100692.88;2302883;77;31184;-61
2021/03/25 12:02:22;;;;;;;83.92;51.05;;;;;;;15.20;47.27;100693.01;2281313;77;33121;-61
2021/03/25 12:05:39;;;;;;;71.02;45.85;;;;;;;15.23;46.69;100691.44;2260778;78;29789;-63
2021/03/25 12:08:41;;;;;;;71.57;47.30;;;;;;;15.15;46.15;100681.63;2291547;77;27700;-61
2021/03/25 12:11:47;;;;;;;75.67;51.37;;;;;;;15.04;46.75;100675.08;2284232;77;29294;-62
2021/03/25 12:14:49;;;;;;;76.82;49.70;;;;;;;15.07;46.71;100678.52;2265025;78;31120;-62
2021/03/25 12:18:04;;;;;;;76.70;49.10;;;;;;;15.05;46.54;100677.28;2264817;78;33577;-63
2021/03/25 12:21:10;;;;;;;79.80;49.58;;;;;;;15.04;46.70;100672.84;2265043;78;29031;-61
2021/03/25 12:24:13;;;;;;;80.12;50.43;;;;;;;15.02;46.24;100658.12;2265002;78;28035;-61
2021/03/25 12:27:23;;;;;;;80.60;51.50;;;;;;;15.01;46.85;100660.89;2265057;78;29224;-60
2021/03/25 12:30:27;;;;;;;76.25;51.00;;;;;;;15.04;47.12;100656.66;2264845;77;31127;-60
2021/03/25 12:33:33;;;;;;;77.95;48.80;;;;;;;15.08;46.91;100658.20;2264261;78;33106;-60
2021/03/25 12:36:36;;;;;;;76.20;48.75;;;;;;;15.09;46.88;100657.71;2264255;78;28859;-61
2021/03/25 12:39:38;;;;;;;76.28;49.70;;;;;;;15.13;47.26;100655.21;2282566;77;27631;-61
2021/03/25 12:42:45;;;;;;;78.17;48.92;;;;;;;15.17;46.76;100651.36;2306844;77;30233;-60
2021/03/25 12:45:51;;;;;;;77.75;49.23;;;;;;;15.14;46.78;100646.16;2306481;77;31198;-61
2021/03/25 12:48:53;;;;;;;71.12;46.75;;;;;;;15.17;47.10;100647.31;2306607;77;34331;-61
2021/03/25 12:51:56;;;;;;;73.95;47.33;;;;;;;15.18;46.05;100640.45;2306894;77;28933;-61
2021/03/25 12:54:59;;;;;;;77.92;49.23;;;;;;;15.11;46.14;100641.83;2306782;77;27778;-60
2021/03/25 12:58:02;;;;;;;81.55;53.58;;;;;;;15.12;46.70;100638.63;2306640;77;29692;-60
2021/03/25 13:01:15;;;;;;;76.02;47.27;;;;;;;15.12;46.53;100634.59;2244463;75;32049;-60
2021/03/25 13:04:18;;;;;;;73.83;46.37;;;;;;;15.11;45.81;100640.48;2264956;77;33094;-61
2021/03/25 13:07:21;;;;;;;71.80;47.08;;;;;;;15.10;46.60;100632.46;2264047;78;29710;-61
2021/03/25 13:10:30;;;;;;;71.10;45.35;;;;;;;15.12;46.38;100633.23;2263780;78;27772;-61
2021/03/25 13:13:32;;;;;;;67.00;43.87;;;;;;;15.13;46.34;100633.16;2263293;78;28852;-62
2021/03/25 13:16:35;;;;;;;69.45;47.00;;;;;;;15.12;46.07;100630.08;2261651;78;32157;-61
2021/03/25 13:19:37;;;;;;;69.97;42.80;;;;;;;15.10;46.31;100626.60;2260253;78;33125;-61
2021/03/25 13:22:40;;;;;;;75.55;46.50;;;;;;;15.13;46.46;100616.97;2261653;77;29370;-60
2021/03/25 13:25:43;;;;;;;72.67;48.13;;;;;;;15.19;46.64;100621.95;2261781;78;27750;-60
2021/03/25 13:28:50;;;;;;;77.25;47.13;;;;;;;15.23;46.53;100624.46;2289996;77;29705;-60
2021/03/25 13:32:06;;;;;;;71.75;45.73;;;;;;;15.23;46.57;100615.02;2263751;77;31068;-68
2021/03/25 13:35:18;;;;;;;76.77;45.90;;;;;;;15.24;46.46;100615.40;2272185;77;28311;-68
2021/03/25 13:38:21;;;;;;;62.83;39.35;;;;;;;15.24;46.25;100623.50;2264597;77;29299;-66
2021/03/25 13:41:23;;;;;;;65.97;40.60;;;;;;;15.23;45.95;100618.56;2302498;77;28171;-67
2021/03/25 13:44:25;;;;;;;58.05;37.00;;;;;;;15.24;45.92;100609.50;2278228;77;29788;-68
2021/03/25 13:47:27;;;;;;;69.60;43.25;;;;;;;15.21;45.77;100604.33;2236884;78;30994;-68
2021/03/25 13:50:32;;;;;;;69.05;40.00;;;;;;;15.20;45.84;100602.59;2261583;78;33115;-66
2021/03/25 13:53:46;;;;;;;59.83;39.88;;;;;;;15.17;45.47;100598.23;2300343;77;34723;-66
2021/03/25 13:56:58;;;;;;;61.83;40.75;;;;;;;15.18;45.62;100599.97;2297464;77;27612;-69
2021/03/25 14:00:01;;;;;;;67.17;41.10;;;;;;;15.15;45.16;100597.47;2261034;78;28801;-68
2021/03/25 14:03:05;;;;;;;62.60;41.23;;;;;;;15.12;45.45;100589.59;2261403;77;31246;-67
2021/03/25 14:06:08;;;;;;;61.92;39.92;;;;;;;15.16;46.00;100594.30;2261849;77;33962;-67
2021/03/25 14:09:10;;;;;;;63.35;39.23;;;;;;;15.20;45.80;100594.50;2300819;77;28837;-68
2021/03/25 14:12:13;;;;;;;62.45;38.95;;;;;;;15.23;46.11;100594.27;2277769;77;27807;-68
2021/03/25 14:15:23;;;;;;;66.62;42.05;;;;;;;15.26;46.01;100591.38;2235557;77;30123;-69
2021/03/25 14:18:31;;;;;;;60.73;40.08;;;;;;;15.28;45.96;100596.70;2258367;78;27707;-67
2021/03/25 14:21:34;;;;;;;59.40;39.15;;;;;;;15.29;45.63;100593.89;2227059;78;33126;-73
2021/03/25 14:24:39;;;;;;;64.42;40.25;;;;;;;15.27;45.71;100587.72;2223821;79;28852;-69
2021/03/25 14:27:41;;;;;;;65.20;42.55;;;;;;;15.27;45.41;100590.42;2230614;78;28132;-69
2021/03/25 14:30:44;;;;;;;60.40;40.15;;;;;;;15.26;45.87;100591.88;2262094;78;28811;-68